createdAt,value
2023-04-20T00:01:18.661Z,2.10
2023-04-20T00:03:46.083Z,2.38
2023-04-20T00:06:14.147Z,2.20
2023-04-20T00:08:41.383Z,2.10
2023-04-20T00:11:08.657Z,2.20
2023-04-20T00:13:35.935Z,2.20
2023-04-20T00:16:03.300Z,2.20
2023-04-20T00:18:30.595Z,2.42
2023-04-20T00:20:57.921Z,2.20
2023-04-20T00:23:25.444Z,2.40
2023-04-20T00:25:52.792Z,2.45
2023-04-20T00:28:20.035Z,2.20
2023-04-20T00:30:47.397Z,2.22
2023-04-20T00:33:14.741Z,2.30
2023-04-20T00:35:42.007Z,2.15
2023-04-20T00:38:09.345Z,2.28
2023-04-20T00:40:36.832Z,2.50
2023-04-20T00:43:13.618Z,2.25
2023-04-20T00:45:41.416Z,2.55
2023-04-20T00:48:08.826Z,2.38
2023-04-20T00:50:36.357Z,2.40
2023-04-20T00:53:03.826Z,2.50
2023-04-20T00:55:31.319Z,2.53
2023-04-20T00:57:59.025Z,2.53
2023-04-20T01:00:27.545Z,2.25
2023-04-20T01:02:55.018Z,2.65
2023-04-20T01:05:22.552Z,2.50
2023-04-20T01:07:50.265Z,2.50
2023-04-20T01:10:17.548Z,2.50
2023-04-20T01:12:44.908Z,2.50
2023-04-20T01:15:12.564Z,2.60
2023-04-20T01:17:40.089Z,2.58
2023-04-20T01:20:14.927Z,2.47
2023-04-20T01:22:45.974Z,2.60
2023-04-20T01:25:13.317Z,2.70
2023-04-20T01:27:40.699Z,2.50
2023-04-20T01:30:08.520Z,2.50
2023-04-20T01:32:35.970Z,2.45
2023-04-20T01:35:03.977Z,2.63
2023-04-20T01:37:31.447Z,2.58
2023-04-20T01:39:59.056Z,3.30
2023-04-20T01:42:26.476Z,2.80
2023-04-20T01:44:53.780Z,2.53
2023-04-20T01:47:21.103Z,2.70
2023-04-20T01:49:48.643Z,2.47
2023-04-20T01:52:16.023Z,2.67
2023-04-20T01:54:43.274Z,2.80
2023-04-20T01:57:10.649Z,3.10
2023-04-20T01:59:37.952Z,2.95
2023-04-20T02:02:05.208Z,2.35
2023-04-20T02:04:32.531Z,2.75
2023-04-20T02:06:59.792Z,2.90
2023-04-20T02:09:27.089Z,2.47
2023-04-20T02:11:54.401Z,2.42
2023-04-20T02:14:22.084Z,2.67
2023-04-20T02:16:49.425Z,2.65
2023-04-20T02:19:17.023Z,2.55
2023-04-20T02:21:44.417Z,2.65
2023-04-20T02:24:11.690Z,2.30
2023-04-20T02:26:38.970Z,2.72
2023-04-20T02:29:06.234Z,2.70
2023-04-20T02:31:34.410Z,2.75
2023-04-20T02:34:01.970Z,2.80
2023-04-20T02:36:31.329Z,2.70
2023-04-20T02:38:58.656Z,2.95
2023-04-20T02:41:25.961Z,2.40
2023-04-20T02:43:53.277Z,2.70
2023-04-20T02:46:21.076Z,3.35
2023-04-20T02:48:48.362Z,2.70
2023-04-20T02:51:15.734Z,2.55
2023-04-20T02:53:43.060Z,2.70
2023-04-20T02:56:11.171Z,3.30
2023-04-20T02:58:38.459Z,4.22
2023-04-20T03:01:05.892Z,4.72
2023-04-20T03:03:33.302Z,5.30
2023-04-20T03:06:00.825Z,5.97
2023-04-20T03:08:28.096Z,4.93
2023-04-20T03:10:55.399Z,5.25
2023-04-20T03:13:22.748Z,4.43
2023-04-20T03:15:49.992Z,4.07
2023-04-20T03:18:17.276Z,3.88
2023-04-20T03:20:44.516Z,3.67
2023-04-20T03:23:11.780Z,3.50
2023-04-20T03:25:39.183Z,3.45
2023-04-20T03:28:06.408Z,3.42
2023-04-20T03:30:33.636Z,3.40
2023-04-20T03:33:01.095Z,3.45
2023-04-20T03:35:28.434Z,3.33
2023-04-20T03:37:55.718Z,3.00
2023-04-20T03:40:23.072Z,3.42
2023-04-20T03:42:50.646Z,3.15
2023-04-20T03:45:17.942Z,2.90
2023-04-20T03:47:45.300Z,3.78
2023-04-20T03:50:12.596Z,3.25
2023-04-20T03:52:39.846Z,3.00
2023-04-20T03:55:08.549Z,2.65
2023-04-20T03:57:35.928Z,3.33
2023-04-20T04:00:04.759Z,2.97
2023-04-20T04:02:32.750Z,2.88
2023-04-20T04:05:00.319Z,2.75
2023-04-20T04:07:27.696Z,2.75
2023-04-20T04:09:55.005Z,3.10
2023-04-20T04:12:22.281Z,3.47
2023-04-20T04:14:49.555Z,3.20
2023-04-20T04:17:16.934Z,3.05
2023-04-20T04:19:44.272Z,3.40
2023-04-20T04:22:11.513Z,2.92
2023-04-20T04:24:39.154Z,3.22
2023-04-20T04:27:07.064Z,3.28
2023-04-20T04:29:38.797Z,3.28
2023-04-20T04:32:06.328Z,3.40
2023-04-20T04:34:34.845Z,3.45
2023-04-20T04:37:02.582Z,3.65
2023-04-20T04:39:30.556Z,3.10
2023-04-20T04:41:57.949Z,3.30
2023-04-20T04:44:26.179Z,2.88
2023-04-20T04:46:53.634Z,3.13
2023-04-20T04:49:21.629Z,3.42
2023-04-20T04:51:48.925Z,3.67
2023-04-20T04:54:16.168Z,4.15
2023-04-20T04:56:43.403Z,3.60
2023-04-20T04:59:10.908Z,3.85
2023-04-20T05:01:38.263Z,3.20
2023-04-20T05:04:05.705Z,3.20
2023-04-20T05:06:33.331Z,3.05
2023-04-20T05:09:00.569Z,3.75
2023-04-20T05:11:27.841Z,3.50
2023-04-20T05:13:55.149Z,3.75
2023-04-20T05:16:22.451Z,3.90
2023-04-20T05:18:49.706Z,3.85
2023-04-20T05:21:17.263Z,3.90
2023-04-20T05:23:44.492Z,4.32
2023-04-20T05:26:11.710Z,3.47
2023-04-20T05:28:38.952Z,3.40
2023-04-20T05:31:08.137Z,3.30
2023-04-20T05:33:35.425Z,3.45
2023-04-20T05:36:02.679Z,3.03
2023-04-20T05:38:30.424Z,3.47
2023-04-20T05:40:57.650Z,3.40
2023-04-20T05:43:25.102Z,3.78
2023-04-20T05:45:52.476Z,3.28
2023-04-20T05:48:19.773Z,3.50
2023-04-20T05:50:47.155Z,3.45
2023-04-20T05:53:14.412Z,4.00
2023-04-20T05:55:41.738Z,4.30
2023-04-20T05:58:09.017Z,5.07
2023-04-20T06:00:36.307Z,4.72
2023-04-20T06:03:04.169Z,5.85
2023-04-20T06:05:31.643Z,6.40
2023-04-20T06:07:58.969Z,4.75
2023-04-20T06:10:26.408Z,3.78
2023-04-20T06:12:53.735Z,3.80
2023-04-20T06:15:21.062Z,3.55
2023-04-20T06:17:48.354Z,3.40
2023-04-20T06:20:16.244Z,3.40
2023-04-20T06:22:47.183Z,3.28
2023-04-20T06:25:15.860Z,3.30
2023-04-20T06:27:43.471Z,3.35
2023-04-20T06:30:11.153Z,3.60
2023-04-20T06:32:38.505Z,3.53
2023-04-20T06:35:06.516Z,2.90
2023-04-20T06:37:33.848Z,2.97
2023-04-20T06:40:01.292Z,2.90
2023-04-20T06:42:28.554Z,3.08
2023-04-20T06:44:56.422Z,3.00
2023-04-20T06:47:23.795Z,2.92
2023-04-20T06:49:51.110Z,3.22
2023-04-20T06:52:18.344Z,3.15
2023-04-20T06:54:45.763Z,3.50
2023-04-20T06:57:16.191Z,3.47
2023-04-20T06:59:46.429Z,3.50
2023-04-20T07:02:16.358Z,3.22
2023-04-20T07:04:44.025Z,3.33
2023-04-20T07:07:45.727Z,2.78
2023-04-20T07:10:17.659Z,3.08
2023-04-20T07:12:45.443Z,3.20
2023-04-20T07:15:33.460Z,3.03
2023-04-20T07:18:02.446Z,2.65
2023-04-20T07:20:35.175Z,2.80
2023-04-20T07:23:10.933Z,2.80
2023-04-20T07:25:48.144Z,2.72
2023-04-20T07:28:15.625Z,2.72
2023-04-20T07:30:43.058Z,2.63
2023-04-20T07:33:16.769Z,2.95
2023-04-20T07:35:51.753Z,2.97
2023-04-20T07:38:19.325Z,2.70
2023-04-20T07:41:00.153Z,2.40
2023-04-20T07:43:27.475Z,2.55
2023-04-20T07:45:54.857Z,2.53
2023-04-20T07:48:22.181Z,2.47
2023-04-20T07:50:49.476Z,2.33
2023-04-20T07:53:16.787Z,2.70
2023-04-20T07:55:44.115Z,2.22
2023-04-20T07:58:12.370Z,2.33
2023-04-20T08:00:39.668Z,2.55
2023-04-20T08:03:07.154Z,2.15
2023-04-20T08:05:34.941Z,2.40
2023-04-20T08:08:02.251Z,2.42
2023-04-20T08:10:29.469Z,2.38
2023-04-20T08:12:56.845Z,2.20
2023-04-20T08:15:24.179Z,2.30
2023-04-20T08:17:53.031Z,2.15
2023-04-20T08:20:20.490Z,2.10
2023-04-20T08:22:47.864Z,2.35
2023-04-20T08:25:15.415Z,2.13
2023-04-20T08:27:42.714Z,2.30
2023-04-20T08:30:10.179Z,2.38
2023-04-20T08:32:37.828Z,2.40
2023-04-20T08:35:05.771Z,2.08
2023-04-20T08:37:33.212Z,2.67
2023-04-20T08:40:00.522Z,2.78
2023-04-20T08:42:27.925Z,2.50
2023-04-20T08:44:55.198Z,2.88
2023-04-20T08:47:22.547Z,2.20
2023-04-20T08:49:52.342Z,2.80
2023-04-20T08:52:19.598Z,2.65
2023-04-20T08:54:55.857Z,2.90
2023-04-20T08:57:24.445Z,2.78
2023-04-20T08:59:51.970Z,2.85
2023-04-20T09:02:19.427Z,2.33
2023-04-20T09:04:49.552Z,2.75
2023-04-20T09:07:20.909Z,2.63
2023-04-20T09:09:55.736Z,2.67
2023-04-20T09:12:23.231Z,2.80
2023-04-20T09:14:50.570Z,2.63
2023-04-20T09:17:18.452Z,2.83
2023-04-20T09:19:46.622Z,2.45
2023-04-20T09:22:14.008Z,2.55
2023-04-20T09:24:42.937Z,2.60
2023-04-20T09:27:21.803Z,2.53
2023-04-20T09:29:59.590Z,2.50
2023-04-20T09:32:28.729Z,2.97
2023-04-20T09:34:56.451Z,2.58
2023-04-20T09:37:23.753Z,3.17
2023-04-20T09:39:51.218Z,2.60
2023-04-20T09:42:18.740Z,2.67
2023-04-20T09:44:46.146Z,2.65
2023-04-20T09:47:17.217Z,2.90
2023-04-20T09:52:12.619Z,3.08
2023-04-20T09:54:40.121Z,2.63
2023-04-20T09:57:07.428Z,3.03
2023-04-20T09:59:35.224Z,2.88
2023-04-20T10:02:02.624Z,2.78
2023-04-20T10:04:30.081Z,2.60
2023-04-20T10:07:03.302Z,2.90
2023-04-20T10:09:32.342Z,2.70
2023-04-20T10:12:09.714Z,2.60
2023-04-20T10:14:37.044Z,2.70
2023-04-20T10:17:05.753Z,2.70
2023-04-20T10:19:46.030Z,2.60
2023-04-20T10:22:14.562Z,2.97
2023-04-20T10:24:42.346Z,3.10
2023-04-20T10:27:19.624Z,2.35
2023-04-20T10:29:47.095Z,2.50
2023-04-20T10:32:24.814Z,2.95
2023-04-20T10:35:06.427Z,2.50
2023-04-20T10:37:34.016Z,2.75
2023-04-20T10:40:01.477Z,2.60
2023-04-20T10:42:29.841Z,2.53
2023-04-20T10:44:57.199Z,2.67
2023-04-20T10:47:28.263Z,2.72
2023-04-20T10:49:55.913Z,2.45
2023-04-20T10:52:36.777Z,3.15
2023-04-20T10:55:04.940Z,2.50
2023-04-20T10:57:32.319Z,3.00
2023-04-20T10:59:59.995Z,2.70
2023-04-20T11:02:28.316Z,2.80
2023-04-20T11:05:01.009Z,2.83
2023-04-20T11:07:28.416Z,3.28
2023-04-20T11:09:58.804Z,2.80
2023-04-20T11:12:26.130Z,2.42
2023-04-20T11:14:58.134Z,2.75
2023-04-20T11:17:34.759Z,2.47
2023-04-20T11:20:21.314Z,2.95
2023-04-20T11:23:00.668Z,2.63
2023-04-20T11:25:28.080Z,2.63
2023-04-20T11:28:06.778Z,2.65
2023-04-20T11:30:43.314Z,2.42
2023-04-20T11:33:11.207Z,2.65
2023-04-20T11:35:39.974Z,2.67
2023-04-20T11:38:07.508Z,2.35
2023-04-20T11:40:35.037Z,2.58
2023-04-20T11:43:02.445Z,2.80
2023-04-20T11:45:34.383Z,2.38
2023-04-20T11:48:03.595Z,2.72
2023-04-20T11:50:32.214Z,2.30
2023-04-20T11:52:59.431Z,2.25
2023-04-20T11:55:26.917Z,2.10
2023-04-20T11:57:54.157Z,2.45
2023-04-20T12:00:22.036Z,2.85
2023-04-20T12:02:49.389Z,2.33
2023-04-20T12:05:16.757Z,2.58
2023-04-20T12:07:47.296Z,2.20
2023-04-20T12:10:14.595Z,2.15
2023-04-20T12:12:42.508Z,2.33
2023-04-20T12:15:10.407Z,2.17
2023-04-20T12:17:37.751Z,2.50
2023-04-20T12:20:09.477Z,2.28
2023-04-20T12:22:36.766Z,1.88
2023-04-20T12:25:04.442Z,2.42
2023-04-20T12:27:31.702Z,2.35
2023-04-20T12:29:58.999Z,2.17
2023-04-20T12:32:26.689Z,2.25
2023-04-20T12:34:53.963Z,2.50
2023-04-20T12:37:21.210Z,2.40
2023-04-20T12:39:48.647Z,2.30
2023-04-20T12:42:16.077Z,2.00
2023-04-20T12:44:43.330Z,2.30
2023-04-20T12:47:10.857Z,1.98
2023-04-20T12:49:38.166Z,1.90
2023-04-20T12:52:07.610Z,2.20
2023-04-20T12:54:35.556Z,1.90
2023-04-20T12:57:03.591Z,1.48
2023-04-20T12:59:30.846Z,2.17
2023-04-20T13:01:58.197Z,1.88
2023-04-20T13:04:25.773Z,1.80
2023-04-20T13:06:53.196Z,1.88
2023-04-20T13:09:20.946Z,1.70
2023-04-20T13:11:48.247Z,1.85
2023-04-20T13:14:15.610Z,1.83
2023-04-20T13:16:43.094Z,1.70
2023-04-20T13:19:10.644Z,1.63
2023-04-20T13:21:37.879Z,1.73
2023-04-20T13:24:05.980Z,1.73
2023-04-20T13:26:33.332Z,1.77
2023-04-20T13:29:00.621Z,1.88
2023-04-20T13:31:27.977Z,2.00
2023-04-20T13:33:55.415Z,1.73
2023-04-20T13:36:23.573Z,1.73
2023-04-20T13:38:53.676Z,1.63
2023-04-20T13:41:21.071Z,1.52
2023-04-20T13:43:48.330Z,1.52
2023-04-20T13:46:16.014Z,2.17
2023-04-20T13:48:43.379Z,1.80
2023-04-20T13:51:10.651Z,1.60
2023-04-20T13:53:38.015Z,1.70
2023-04-20T13:56:05.404Z,1.48
2023-04-20T13:58:32.818Z,1.67
2023-04-20T14:01:00.143Z,1.67
2023-04-20T14:03:27.632Z,1.58
2023-04-20T14:05:55.100Z,1.90
2023-04-20T14:08:23.444Z,1.88
2023-04-20T14:10:50.862Z,1.58
2023-04-20T14:13:18.177Z,2.22
2023-04-20T14:15:45.691Z,5.00
2023-04-20T14:18:13.136Z,1.67
2023-04-20T14:20:40.713Z,1.95
2023-04-20T14:23:09.535Z,1.40
2023-04-20T14:25:36.988Z,1.75
2023-04-20T14:28:04.429Z,1.70
2023-04-20T14:30:31.798Z,1.75
2023-04-20T14:32:59.860Z,2.35
2023-04-20T14:35:28.245Z,1.83
2023-04-20T14:37:55.620Z,1.65
2023-04-20T14:40:23.006Z,2.03
2023-04-20T14:42:50.362Z,1.80
2023-04-20T14:45:17.744Z,1.55
2023-04-20T14:47:45.051Z,1.88
2023-04-20T14:50:12.574Z,2.00
2023-04-20T14:52:39.849Z,1.73
2023-04-20T14:55:07.175Z,1.52
2023-04-20T14:57:34.551Z,1.50
2023-04-20T15:00:01.839Z,2.08
2023-04-20T15:02:29.281Z,1.70
2023-04-20T15:04:58.680Z,2.08
2023-04-20T15:07:26.194Z,1.80
2023-04-20T15:09:53.446Z,1.85
2023-04-20T15:12:21.086Z,1.60
2023-04-20T15:14:48.381Z,1.63
2023-04-20T15:17:15.886Z,1.70
2023-04-20T15:19:46.142Z,1.88
2023-04-20T15:22:13.777Z,1.30
2023-04-20T15:24:41.109Z,1.70
2023-04-20T15:27:08.884Z,1.42
2023-04-20T15:29:36.677Z,2.10
2023-04-20T15:32:04.068Z,1.98
2023-04-20T15:34:31.322Z,2.42
2023-04-20T15:36:58.582Z,1.88
2023-04-20T15:39:26.179Z,1.75
2023-04-20T15:41:53.441Z,2.13
2023-04-20T15:44:20.902Z,1.85
2023-04-20T15:46:48.137Z,1.85
2023-04-20T15:49:15.401Z,1.70
2023-04-20T15:51:44.364Z,2.60
2023-04-20T15:54:11.766Z,1.80
2023-04-20T15:56:38.992Z,1.60
2023-04-20T15:59:06.279Z,1.90
2023-04-20T16:01:34.337Z,1.70
2023-04-20T16:04:01.999Z,1.50
2023-04-20T16:06:29.403Z,1.50
2023-04-20T16:08:57.771Z,1.60
2023-04-20T16:11:25.038Z,1.52
2023-04-20T16:13:52.332Z,1.80
2023-04-20T16:16:19.701Z,1.65
2023-04-20T16:18:47.065Z,1.50
2023-04-20T16:21:14.685Z,1.65
2023-04-20T16:23:41.930Z,1.52
2023-04-20T16:26:09.422Z,1.70
2023-04-20T16:28:38.097Z,1.40
2023-04-20T16:31:05.907Z,1.60
2023-04-20T16:33:33.675Z,1.30
2023-04-20T16:36:01.899Z,1.55
2023-04-20T16:38:29.143Z,1.17
2023-04-20T16:40:56.423Z,1.40
2023-04-20T16:43:23.708Z,1.50
2023-04-20T16:45:50.939Z,1.30
2023-04-20T16:48:18.187Z,1.25
2023-04-20T16:50:45.746Z,1.48
2023-04-20T16:53:12.995Z,1.48
2023-04-20T16:55:40.333Z,1.45
2023-04-20T16:58:07.678Z,1.80
2023-04-20T17:00:35.469Z,1.20
2023-04-20T17:03:06.831Z,1.33
2023-04-20T17:05:34.264Z,1.35
2023-04-20T17:08:01.521Z,1.48
2023-04-20T17:10:28.778Z,1.10
2023-04-20T17:12:56.008Z,1.30
2023-04-20T17:15:23.569Z,1.20
2023-04-20T17:17:51.069Z,1.40
2023-04-20T17:20:18.422Z,1.42
2023-04-20T17:22:46.647Z,1.35
2023-04-20T17:25:13.909Z,1.75
2023-04-20T17:27:41.269Z,1.52
2023-04-20T17:30:08.813Z,1.90
2023-04-20T17:32:36.039Z,1.52
2023-04-20T17:35:03.368Z,1.80
2023-04-20T17:37:30.684Z,1.98
2023-04-20T17:39:58.770Z,1.77
2023-04-20T17:42:26.099Z,1.23
2023-04-20T17:44:53.361Z,1.70
2023-04-20T17:47:20.636Z,1.45
2023-04-20T17:49:47.922Z,1.50
2023-04-20T17:52:19.408Z,1.65
2023-04-20T17:54:46.850Z,1.70
2023-04-20T17:57:15.320Z,1.20
2023-04-20T17:59:44.446Z,1.50
2023-04-20T18:02:11.968Z,1.45
2023-04-20T18:04:39.805Z,1.40
2023-04-20T18:07:07.197Z,1.40
2023-04-20T18:09:34.448Z,1.33
2023-04-20T18:12:01.993Z,1.23
2023-04-20T18:14:29.275Z,1.50
2023-04-20T18:16:56.760Z,1.23
2023-04-20T18:19:24.086Z,1.63
2023-04-20T18:21:51.412Z,1.42
2023-04-20T18:24:19.313Z,1.27
2023-04-20T18:26:46.826Z,1.77
2023-04-20T18:29:14.079Z,1.30
2023-04-20T18:31:41.371Z,1.17
2023-04-20T18:34:10.529Z,0.90
2023-04-20T18:36:37.768Z,1.20
2023-04-20T18:39:05.970Z,1.30
2023-04-20T18:41:33.232Z,1.10
2023-04-20T18:44:01.367Z,1.00
2023-04-20T18:46:28.702Z,1.40
2023-04-20T18:48:56.040Z,1.10
2023-04-20T18:51:23.765Z,1.20
2023-04-20T18:53:51.451Z,1.23
2023-04-20T18:56:18.735Z,1.70
2023-04-20T18:58:46.108Z,1.20
2023-04-20T19:01:13.426Z,1.10
2023-04-20T19:03:41.022Z,1.08
2023-04-20T19:06:08.352Z,1.30
2023-04-20T19:08:35.580Z,1.23
2023-04-20T19:11:03.054Z,1.48
2023-04-20T19:13:30.416Z,1.10
2023-04-20T19:15:57.852Z,1.40
2023-04-20T19:18:28.047Z,1.52
2023-04-20T19:20:55.749Z,1.48
2023-04-20T19:23:23.082Z,1.70
2023-04-20T19:25:50.452Z,1.48
2023-04-20T19:28:17.834Z,1.10
2023-04-20T19:30:45.433Z,1.45
2023-04-20T19:33:14.824Z,1.67
2023-04-20T19:35:43.565Z,2.15
2023-04-20T19:38:10.986Z,1.48
2023-04-20T19:40:38.288Z,1.55
2023-04-20T19:43:05.575Z,1.50
2023-04-20T19:45:32.814Z,1.67
2023-04-20T19:48:00.221Z,1.63
2023-04-20T19:50:27.553Z,1.70
2023-04-20T19:52:54.907Z,1.67
2023-04-20T19:55:22.259Z,1.50
2023-04-20T19:57:49.551Z,1.52
2023-04-20T20:00:16.960Z,1.40
2023-04-20T20:02:44.334Z,1.20
2023-04-20T20:05:11.675Z,1.75
2023-04-20T20:07:39.162Z,1.58
2023-04-20T20:10:06.601Z,1.60
2023-04-20T20:12:33.838Z,1.33
2023-04-20T20:15:01.126Z,1.33
2023-04-20T20:17:28.648Z,1.02
2023-04-20T20:19:56.281Z,1.27
2023-04-20T20:22:23.580Z,1.30
2023-04-20T20:24:52.212Z,1.20
2023-04-20T20:27:19.492Z,1.45
2023-04-20T20:29:46.828Z,1.40
2023-04-20T20:32:14.102Z,1.55
2023-04-20T20:34:41.444Z,1.52
2023-04-20T20:37:10.393Z,1.60
2023-04-20T20:39:38.112Z,1.42
2023-04-20T20:42:07.146Z,1.27
2023-04-20T20:44:40.176Z,1.42
2023-04-20T20:49:34.730Z,1.30
2023-04-20T20:52:02.531Z,1.40
2023-04-20T20:54:29.853Z,1.50
2023-04-20T20:56:57.716Z,1.50
2023-04-20T20:59:25.113Z,1.20
2023-04-20T21:01:52.422Z,1.10
2023-04-20T21:04:19.758Z,1.23
2023-04-20T21:06:47.065Z,1.35
2023-04-20T21:09:15.477Z,1.38
2023-04-20T21:11:42.833Z,1.20
2023-04-20T21:14:10.166Z,1.55
2023-04-20T21:16:37.519Z,1.08
2023-04-20T21:19:04.795Z,1.20
2023-04-20T21:21:35.185Z,1.17
2023-04-20T21:24:02.568Z,1.10
2023-04-20T21:26:35.711Z,1.05
2023-04-20T21:29:03.574Z,1.17
2023-04-20T21:31:31.148Z,1.17
2023-04-20T21:33:58.846Z,1.50
2023-04-20T21:36:26.421Z,1.58
2023-04-20T21:38:53.681Z,1.60
2023-04-20T21:41:21.851Z,1.60
2023-04-20T21:43:49.165Z,1.30
2023-04-20T21:46:16.890Z,1.25
2023-04-20T21:48:44.234Z,1.15
2023-04-20T21:51:18.574Z,1.63
2023-04-20T21:53:46.280Z,1.10
2023-04-20T21:56:15.016Z,1.20
2023-04-20T21:58:42.365Z,1.05
2023-04-20T22:01:09.825Z,1.20
2023-04-20T22:03:38.132Z,1.13
2023-04-20T22:06:06.563Z,1.10
2023-04-20T22:08:33.942Z,1.10
2023-04-20T22:11:01.224Z,1.45
2023-04-20T22:13:28.573Z,1.00
2023-04-20T22:15:56.028Z,1.00
2023-04-20T22:18:23.486Z,0.80
2023-04-20T22:20:51.559Z,0.95
2023-04-20T22:23:19.105Z,1.05
2023-04-20T22:25:46.366Z,1.10
2023-04-20T22:28:13.637Z,1.20
2023-04-20T22:30:42.489Z,0.73
2023-04-20T22:33:09.874Z,1.08
2023-04-20T22:35:37.209Z,1.00
2023-04-20T22:38:04.577Z,0.75
2023-04-20T22:40:31.938Z,0.80
2023-04-20T22:42:59.198Z,0.80
2023-04-20T22:45:26.562Z,0.80
2023-04-20T22:47:53.975Z,0.82
2023-04-20T22:50:21.317Z,1.00
2023-04-20T22:52:49.674Z,0.80
2023-04-20T22:55:17.038Z,0.82
2023-04-20T22:57:44.282Z,0.77
2023-04-20T23:00:13.976Z,0.70
2023-04-20T23:02:41.699Z,0.90
2023-04-20T23:05:09.752Z,0.90
2023-04-20T23:07:37.652Z,0.90
2023-04-20T23:10:06.178Z,0.90
2023-04-20T23:12:33.530Z,0.90
2023-04-20T23:15:01.484Z,0.80
2023-04-20T23:17:29.114Z,1.00
2023-04-20T23:19:56.718Z,0.75
2023-04-20T23:22:24.160Z,0.75
2023-04-20T23:24:51.502Z,0.90
2023-04-20T23:27:18.773Z,1.25
2023-04-20T23:29:46.488Z,0.63
2023-04-20T23:32:13.817Z,0.80
2023-04-20T23:34:41.107Z,0.73
2023-04-20T23:37:08.407Z,0.70
2023-04-20T23:39:38.929Z,0.98
2023-04-20T23:42:06.454Z,1.00
2023-04-20T23:44:33.792Z,1.10
2023-04-20T23:47:01.149Z,1.08
2023-04-20T23:49:28.414Z,0.90
2023-04-20T23:51:55.723Z,0.70
2023-04-20T23:54:22.990Z,0.85
2023-04-20T23:56:50.310Z,0.80
2023-04-20T23:59:17.925Z,0.70
